HULO2: Hulah Lake

Data processed at Wed May 22 2019 23:50


All information presented herein is the property of the government of the United States of America and may be revised or deleted at any time without prior notice.
Dissemination of this information without the expressed written consent of the Public Affairs Office, Tulsa District U.S. Army Corps of Engineers is strictly prohibited.
These data are gathered electronically and, as presented, have not undergone any form of quality control. These data are not guaranteed to be valid or correct.
Go to home page.
Go to station list.
Go to home page.

Upstream stations:

Downstream station:
Previous Day
Next Day
Current Day
    
SHEF ID:       HULO2     Hulah Lake
STATION TYPE:  RESERVOIR
Flood Pool:  Bottom =   733.00, Top =   765.00

               PRECIP ELEVATION   STORAGE    INFLOW   RELEASE  AIR-TEMP  WIND-DIRWIND-SPEED REL-HUMID SOLAR-RAD   VOLTAGE  BAT-LOAD
                   in        ft     ac-ft       cfs       cfs         F       deg       mph         %      W/m2      volt      volt
              Ccp-Rev   Ccp-Rev   Ccp-Rev  Rev-Regi  Rev-Regi   Ccp-Rev   Ccp-Rev   Ccp-Rev   Ccp-Rev   Ccp-Rev   Ccp-Rev   Ccp-Rev
(US/Central)
05/22 00:00      0.00    764.26    254363     30048      3938     64.54    192.60      6.00     59.17      0.00     12.86     12.65
05/22 01:00      0.00    764.43    256517     27182      3952     63.68    195.80      4.70     61.36      0.00     12.84     12.65
05/22 02:00      0.00    764.57    258290     26027      3963     63.30    300.30      5.90     67.74      0.00     12.83     12.57
05/22 03:00      0.00    764.69    259810     23995      3973     60.03    154.10      3.00     72.22      0.00     12.77     12.57
05/22 04:00      0.00    764.82    261457     21146      3983     57.92    184.90      3.20     76.57      0.00     12.80     12.57
05/22 05:00      0.00    764.90    262470     18296      8088     59.05    239.60      5.20     75.17      0.00     12.80     12.57
05/22 06:00      0.00    764.95    263104     15444      8098     58.42    254.90      6.80     81.02      0.00     12.78     12.57
05/22 07:00      0.00    764.97    263357     11671      8102     56.23    228.40      4.40     86.90     21.60     12.78     12.57
05/22 08:00      0.00    764.97    263357      9324      8102     54.97    168.60      2.00     90.18    190.30     12.79     12.57
05/22 09:00      0.00    764.95    263104      7485      8098     57.94    261.90      3.30     75.75    348.60     13.16     12.57
05/22 10:00      0.00    764.94    262977      6258      8096     59.72    292.10      2.00     68.26    394.10     13.36     12.89
05/22 11:00      0.00    764.93    262850      5642      8094     62.60    127.50      1.90     73.04    332.90     13.44     13.05
05/22 12:00      0.00    764.91    262597      5638      8090     64.99    129.50      2.50     76.85    237.90     13.37     13.21
05/22 13:00      0.00    764.89    262344      5329      8086     67.86    168.30      4.50     85.47    448.20     13.66     12.73
05/22 14:00      0.00    764.87    262090      5325      8082     69.94    311.40      3.30     87.02    639.40     13.56     13.29
05/22 15:00      0.00    764.85    261837      5117      8078     72.90    320.90      4.10     85.71    731.70     13.71     13.37
05/22 16:00      0.00    764.84    261710      4909      3985     76.19    232.10      6.60     80.28    230.10     13.25     13.29
05/22 17:00      0.00    764.84    261710      5316      3985     75.97    283.50      5.50     81.95    460.60     13.58     12.97
05/22 18:00      0.00    764.84    261710      4804      3985     75.16    349.80      7.70     84.86    190.30     13.44     13.29
05/22 19:00      0.00    764.86    261964      5212      3986     73.62    351.50      6.60     85.30    187.40     13.51     13.05
05/22 20:00      0.00    764.85    261837      4906      3986     72.19     15.30      5.60     88.50      5.50     12.92     13.21
05/22 21:00      0.08    764.88    262217      5213      3988     70.74     16.30      7.50     93.56      0.00     12.87     12.65
05/22 22:00      0.02    764.87    262090      4294      3987     69.22    344.50      3.60     99.23      0.00     12.85     12.65
05/22 23:00      0.00    764.88    262217      5520      3988     68.50     69.60      4.70     99.55      0.00     12.84     12.65